createdAt,value
2023-05-19T00:02:07.557Z,100166.91
2023-05-19T00:04:34.196Z,100163.75
2023-05-19T00:07:00.766Z,100163.81
2023-05-19T00:09:27.406Z,100154.66
2023-05-19T00:11:54.025Z,100158.28
2023-05-19T00:14:21.098Z,100144.72
2023-05-19T00:16:47.732Z,100169.97
2023-05-19T00:19:14.446Z,100154.47
2023-05-19T00:21:40.898Z,100156.03
2023-05-19T00:24:07.748Z,100158.66
2023-05-19T00:26:34.275Z,100161.72
2023-05-19T00:29:00.701Z,100154.03
2023-05-19T00:31:27.091Z,100151.63
2023-05-19T00:33:53.759Z,100163.72
2023-05-19T00:36:20.111Z,100157.63
2023-05-19T00:38:46.788Z,100164.00
2023-05-19T00:41:13.228Z,100166.78
2023-05-19T00:43:39.704Z,100167.47
2023-05-19T00:46:06.246Z,100161.75
2023-05-19T00:48:32.648Z,100159.44
2023-05-19T00:51:00.752Z,100161.69
2023-05-19T00:53:27.709Z,100166.34
2023-05-19T00:55:54.124Z,100160.69
2023-05-19T00:58:20.555Z,100167.00
2023-05-19T01:00:47.049Z,100174.03
2023-05-19T01:03:13.578Z,100160.81
2023-05-19T01:05:41.307Z,100162.75
2023-05-19T01:08:08.846Z,100162.09
2023-05-19T01:10:35.243Z,100164.50
2023-05-19T01:13:05.765Z,100153.59
2023-05-19T01:15:50.434Z,100156.28
2023-05-19T01:18:25.682Z,100152.88
2023-05-19T01:21:02.535Z,100148.63
2023-05-19T01:23:28.957Z,100153.94
2023-05-19T01:26:11.541Z,100149.81
2023-05-19T01:29:02.724Z,100152.00
2023-05-19T01:31:32.062Z,100142.63
2023-05-19T01:34:00.309Z,100150.72
2023-05-19T01:36:27.737Z,100150.00
2023-05-19T01:38:57.154Z,100151.69
2023-05-19T01:41:25.141Z,100150.84
2023-05-19T01:43:51.867Z,100152.63
2023-05-19T01:46:19.263Z,100150.78
2023-05-19T01:48:47.563Z,100140.47
2023-05-19T01:51:14.098Z,100143.94
2023-05-19T01:53:40.499Z,100137.34
2023-05-19T01:56:07.555Z,100144.22
2023-05-19T01:58:51.666Z,100139.09
2023-05-19T02:01:32.140Z,100137.44
2023-05-19T02:04:36.154Z,100142.59
2023-05-19T02:07:26.521Z,100148.06
2023-05-19T02:10:16.546Z,100147.31
2023-05-19T02:12:45.780Z,100148.34
2023-05-19T02:15:23.304Z,100145.84
2023-05-19T02:17:51.322Z,100146.69
2023-05-19T02:20:18.634Z,100145.84
2023-05-19T02:22:45.593Z,100145.16
2023-05-19T02:25:11.995Z,100146.81
2023-05-19T02:27:39.005Z,100141.63
2023-05-19T02:30:07.151Z,100146.94
2023-05-19T02:32:34.021Z,100150.41
2023-05-19T02:35:00.542Z,100143.44
2023-05-19T02:37:26.909Z,100142.59
2023-05-19T02:39:53.327Z,100137.56
2023-05-19T02:42:19.849Z,100129.81
2023-05-19T02:44:46.509Z,100125.56
2023-05-19T02:47:13.424Z,100141.09
2023-05-19T02:49:40.058Z,100136.78
2023-05-19T02:52:06.778Z,100140.81
2023-05-19T02:54:34.518Z,100125.41
2023-05-19T02:57:01.700Z,100139.28
2023-05-19T02:59:28.252Z,100123.81
2023-05-19T03:02:01.115Z,100118.34
2023-05-19T03:04:28.250Z,100133.03
2023-05-19T03:06:54.795Z,100134.03
2023-05-19T03:09:21.333Z,100126.94
2023-05-19T03:11:47.693Z,100134.75
2023-05-19T03:14:14.418Z,100131.22
2023-05-19T03:16:41.794Z,100127.78
2023-05-19T03:19:08.953Z,100129.81
2023-05-19T03:21:35.745Z,100131.34
2023-05-19T03:24:02.549Z,100121.94
2023-05-19T03:26:28.940Z,100120.03
2023-05-19T03:28:55.590Z,100114.84
2023-05-19T03:31:21.952Z,100122.53
2023-05-19T03:33:48.499Z,100114.22
2023-05-19T03:36:14.848Z,100120.09
2023-05-19T03:38:41.204Z,100124.63
2023-05-19T03:41:07.614Z,100129.13
2023-05-19T03:43:33.967Z,100119.84
2023-05-19T03:46:00.436Z,100130.28
2023-05-19T03:48:26.951Z,100128.63
2023-05-19T03:50:53.308Z,100124.19
2023-05-19T03:53:20.014Z,100133.88
2023-05-19T03:55:46.647Z,100136.38
2023-05-19T03:58:12.990Z,100133.63
2023-05-19T04:00:39.680Z,100134.56
2023-05-19T04:03:06.206Z,100138.81
2023-05-19T04:05:32.852Z,100136.13
2023-05-19T04:07:59.199Z,100138.94
2023-05-19T04:10:25.631Z,100138.22
2023-05-19T04:12:51.984Z,100143.47
2023-05-19T04:15:18.440Z,100145.38
2023-05-19T04:17:44.923Z,100147.06
2023-05-19T04:20:11.900Z,100140.06
2023-05-19T04:22:38.315Z,100142.56
2023-05-19T04:25:05.315Z,100140.06
2023-05-19T04:27:31.758Z,100147.88
2023-05-19T04:29:58.351Z,100140.13
2023-05-19T04:32:24.958Z,100141.69
2023-05-19T04:34:51.345Z,100141.56
2023-05-19T04:37:17.707Z,100145.75
2023-05-19T04:39:44.510Z,100143.06
2023-05-19T04:42:11.283Z,100149.91
2023-05-19T04:44:40.766Z,100147.16
2023-05-19T04:47:08.558Z,100142.94
2023-05-19T04:49:35.709Z,100128.97
2023-05-19T04:52:02.057Z,100147.78
2023-05-19T04:54:28.433Z,100135.78
2023-05-19T04:56:54.857Z,100123.66
2023-05-19T04:59:22.477Z,100140.75
2023-05-19T05:01:49.026Z,100137.34
2023-05-19T05:04:15.684Z,100144.13
2023-05-19T05:06:42.412Z,100151.59
2023-05-19T05:09:09.126Z,100143.50
2023-05-19T05:11:35.896Z,100145.09
2023-05-19T05:14:02.914Z,100144.88
2023-05-19T05:16:29.759Z,100138.63
2023-05-19T05:18:56.466Z,100141.91
2023-05-19T05:21:23.714Z,100139.72
2023-05-19T05:23:51.592Z,100134.41
2023-05-19T05:26:19.607Z,100134.03
2023-05-19T05:28:45.979Z,100137.34
2023-05-19T05:31:12.405Z,100136.38
2023-05-19T05:33:39.447Z,100134.50
2023-05-19T05:36:06.496Z,100134.97
2023-05-19T05:38:33.036Z,100133.91
2023-05-19T05:40:59.378Z,100125.69
2023-05-19T05:43:25.904Z,100126.22
2023-05-19T05:45:53.927Z,100132.09
2023-05-19T05:48:20.720Z,100131.78
2023-05-19T05:50:49.430Z,100130.47
2023-05-19T05:53:19.689Z,100141.53
2023-05-19T05:55:47.632Z,100140.75
2023-05-19T05:58:14.089Z,100135.94
2023-05-19T06:00:40.920Z,100135.66
2023-05-19T06:03:07.839Z,100129.31
2023-05-19T06:05:34.763Z,100123.66
2023-05-19T06:08:01.616Z,100130.94
2023-05-19T06:10:28.914Z,100133.19
2023-05-19T06:12:55.787Z,100134.56
2023-05-19T06:15:22.495Z,100126.44
2023-05-19T06:17:50.262Z,100129.19
2023-05-19T06:20:18.089Z,100139.41
2023-05-19T06:22:44.504Z,100128.72
2023-05-19T06:25:10.941Z,100129.94
2023-05-19T06:27:37.387Z,100120.00
2023-05-19T06:30:04.040Z,100122.34
2023-05-19T06:32:30.660Z,100109.50
2023-05-19T06:34:57.345Z,100122.44
2023-05-19T06:37:24.417Z,100122.03
2023-05-19T06:39:52.864Z,100120.78
2023-05-19T06:42:20.772Z,100125.34
2023-05-19T06:44:47.128Z,100121.59
2023-05-19T06:47:13.575Z,100119.84
2023-05-19T06:49:40.136Z,100122.06
2023-05-19T06:52:06.740Z,100126.34
2023-05-19T06:54:33.147Z,100113.94
2023-05-19T06:56:59.778Z,100111.34
2023-05-19T06:59:26.221Z,100105.50
2023-05-19T07:01:52.618Z,100110.84
2023-05-19T07:04:20.776Z,100113.56
2023-05-19T07:06:47.157Z,100113.63
2023-05-19T07:09:13.517Z,100117.69
2023-05-19T07:11:40.353Z,100109.38
2023-05-19T07:14:06.717Z,100115.41
2023-05-19T07:16:33.384Z,100122.16
2023-05-19T07:19:00.432Z,100123.38
2023-05-19T07:21:26.861Z,100115.06
2023-05-19T07:23:53.416Z,100119.28
2023-05-19T07:26:19.994Z,100111.69
2023-05-19T07:28:46.684Z,100110.13
2023-05-19T07:31:13.052Z,100119.09
2023-05-19T07:33:39.663Z,100106.13
2023-05-19T07:36:06.429Z,100111.97
2023-05-19T07:38:33.207Z,100101.19
2023-05-19T07:41:00.839Z,100103.88
2023-05-19T07:43:27.208Z,100102.72
2023-05-19T07:45:53.771Z,100103.34
2023-05-19T07:48:20.345Z,100109.72
2023-05-19T07:50:47.496Z,100095.31
2023-05-19T07:53:14.091Z,100090.19
2023-05-19T07:55:40.526Z,100091.69
2023-05-19T07:58:07.501Z,100081.31
2023-05-19T08:00:34.533Z,100085.44
2023-05-19T08:03:01.066Z,100081.06
2023-05-19T08:05:27.614Z,100075.81
2023-05-19T08:07:55.083Z,100079.41
2023-05-19T08:10:21.491Z,100081.41
2023-05-19T08:12:48.070Z,100074.63
2023-05-19T08:15:14.450Z,100076.13
2023-05-19T08:17:40.836Z,100054.69
2023-05-19T08:20:08.072Z,100063.81
2023-05-19T08:22:34.881Z,100065.47
2023-05-19T08:25:01.295Z,100066.75
2023-05-19T08:27:28.018Z,100056.13
2023-05-19T08:29:54.813Z,100048.16
2023-05-19T08:32:21.639Z,100046.69
2023-05-19T08:34:48.021Z,100042.09
2023-05-19T08:37:14.729Z,100042.41
2023-05-19T08:39:41.621Z,100037.03
2023-05-19T08:42:08.187Z,100030.44
2023-05-19T08:44:34.650Z,100034.91
2023-05-19T08:47:03.698Z,100035.22
2023-05-19T08:49:34.121Z,100029.84
2023-05-19T08:52:09.758Z,100024.75
2023-05-19T08:54:43.592Z,100031.91
2023-05-19T08:57:10.380Z,100028.94
2023-05-19T08:59:38.119Z,100034.97
2023-05-19T09:02:05.152Z,100021.59
2023-05-19T09:04:32.502Z,100023.69
2023-05-19T09:06:59.368Z,100022.19
2023-05-19T09:09:25.816Z,100018.00
2023-05-19T09:11:52.732Z,100020.16
2023-05-19T09:14:19.186Z,100010.16
2023-05-19T09:16:46.043Z,100009.16
2023-05-19T09:19:14.031Z,100017.47
2023-05-19T09:21:40.491Z,100023.25
2023-05-19T09:24:08.326Z,100009.66
2023-05-19T09:26:42.716Z,100012.25
2023-05-19T09:29:13.612Z,100006.31
2023-05-19T09:31:47.626Z,100004.47
2023-05-19T09:34:14.114Z,100003.34
2023-05-19T09:36:41.440Z,99998.03
2023-05-19T09:39:17.625Z,100003.41
2023-05-19T09:41:44.996Z,99997.69
2023-05-19T09:44:25.306Z,99993.47
2023-05-19T09:46:52.930Z,99998.28
2023-05-19T09:49:30.494Z,99989.44
2023-05-19T09:51:58.825Z,99993.28
2023-05-19T09:54:26.308Z,99994.72
2023-05-19T09:57:00.508Z,99991.47
2023-05-19T09:59:31.347Z,99988.81
2023-05-19T10:01:59.996Z,99978.09
2023-05-19T10:04:28.590Z,99984.78
2023-05-19T10:06:57.302Z,99988.97
2023-05-19T10:09:24.787Z,99992.66
2023-05-19T10:11:56.263Z,99984.19
2023-05-19T10:14:24.379Z,99977.97
2023-05-19T10:16:52.062Z,99968.09
2023-05-19T10:19:22.740Z,99980.91
2023-05-19T10:21:50.270Z,99962.84
2023-05-19T10:24:16.983Z,99976.59
2023-05-19T10:26:46.837Z,99977.59
2023-05-19T10:29:16.177Z,99978.91
2023-05-19T10:31:45.439Z,99969.66
2023-05-19T10:34:34.854Z,99974.44
2023-05-19T10:37:34.056Z,99975.03
2023-05-19T10:40:00.954Z,99955.47
2023-05-19T10:42:40.604Z,99956.22
2023-05-19T10:45:18.544Z,99960.13
2023-05-19T10:47:45.475Z,99949.47
2023-05-19T10:50:12.377Z,99954.91
2023-05-19T10:52:40.334Z,99951.13
2023-05-19T10:55:13.243Z,99952.03
2023-05-19T10:57:53.807Z,99948.22
2023-05-19T11:00:32.204Z,99951.25
2023-05-19T11:03:17.650Z,99950.47
2023-05-19T11:05:44.419Z,99951.28
2023-05-19T11:08:11.530Z,99951.75
2023-05-19T11:10:38.788Z,99947.78
2023-05-19T11:13:06.471Z,99960.69
2023-05-19T11:15:36.339Z,99951.41
2023-05-19T11:18:04.816Z,99957.50
2023-05-19T11:20:31.312Z,99955.72
2023-05-19T11:23:17.064Z,99956.13
2023-05-19T11:25:50.750Z,99957.22
2023-05-19T11:28:19.982Z,99954.44
2023-05-19T11:30:48.067Z,99961.09
2023-05-19T11:33:14.837Z,99965.72
2023-05-19T11:35:42.136Z,99958.88
2023-05-19T11:38:08.835Z,99946.56
2023-05-19T11:40:35.549Z,99946.59
2023-05-19T11:43:02.178Z,99938.47
2023-05-19T11:45:31.605Z,99940.28
2023-05-19T11:48:02.553Z,99944.75
2023-05-19T11:50:31.755Z,99938.59
2023-05-19T11:53:01.054Z,99941.38
2023-05-19T11:55:27.999Z,99949.56
2023-05-19T11:58:03.919Z,99936.94
2023-05-19T12:00:36.445Z,99942.25
2023-05-19T12:03:03.248Z,99939.63
2023-05-19T12:05:30.157Z,99937.38
2023-05-19T12:07:56.916Z,99924.72
2023-05-19T12:10:24.416Z,99919.00
2023-05-19T12:12:51.506Z,99922.94
2023-05-19T12:15:22.572Z,99935.00
2023-05-19T12:18:00.183Z,99928.25
2023-05-19T12:20:29.656Z,99918.13
2023-05-19T12:22:56.172Z,99925.41
2023-05-19T12:25:23.862Z,99928.25
2023-05-19T12:27:50.547Z,99923.50
2023-05-19T12:30:17.175Z,99925.06
2023-05-19T12:32:43.862Z,99917.72
2023-05-19T12:35:10.910Z,99910.28
2023-05-19T12:37:41.631Z,99917.72
2023-05-19T12:40:10.029Z,99909.84
2023-05-19T12:42:36.394Z,99904.47
2023-05-19T12:45:04.453Z,99912.06
2023-05-19T12:47:32.986Z,99902.25
2023-05-19T12:49:59.695Z,99903.91
2023-05-19T12:52:27.550Z,99897.09
2023-05-19T12:55:00.506Z,99903.47
2023-05-19T12:57:27.982Z,99900.38
2023-05-19T13:00:00.934Z,99888.50
2023-05-19T13:02:27.851Z,99902.44
2023-05-19T13:04:54.593Z,99912.63
2023-05-19T13:07:20.990Z,99900.25
2023-05-19T13:09:47.343Z,99898.19
2023-05-19T13:12:13.798Z,99901.84
2023-05-19T13:14:40.220Z,99895.81
2023-05-19T13:17:06.712Z,99908.00
2023-05-19T13:19:33.235Z,99897.75
2023-05-19T13:21:59.752Z,99894.53
2023-05-19T13:24:26.090Z,99891.88
2023-05-19T13:26:53.860Z,99891.31
2023-05-19T13:29:20.376Z,99894.41
2023-05-19T13:31:46.726Z,99890.59
2023-05-19T13:34:13.255Z,99892.97
2023-05-19T13:36:39.624Z,99893.13
2023-05-19T13:39:06.364Z,99895.94
2023-05-19T13:41:32.697Z,99891.63
2023-05-19T13:43:59.174Z,99885.84
2023-05-19T13:46:36.763Z,99887.66
2023-05-19T13:49:10.876Z,99884.00
2023-05-19T13:51:37.313Z,99890.63
2023-05-19T13:54:03.731Z,99886.38
2023-05-19T13:56:30.219Z,99890.78
2023-05-19T13:58:56.565Z,99885.56
2023-05-19T14:01:22.948Z,99888.91
2023-05-19T14:03:49.791Z,99885.56
2023-05-19T14:06:16.570Z,99885.97
2023-05-19T14:08:43.288Z,99885.28
2023-05-19T14:11:09.634Z,99879.66
2023-05-19T14:13:39.114Z,99884.47
2023-05-19T14:16:08.482Z,99887.44
2023-05-19T14:18:34.992Z,99886.25
2023-05-19T14:21:01.428Z,99894.25
2023-05-19T14:23:27.785Z,99887.19
2023-05-19T14:25:54.227Z,99889.88
2023-05-19T14:28:20.797Z,99894.25
2023-05-19T14:30:47.939Z,99895.25
2023-05-19T14:33:14.765Z,99903.22
2023-05-19T14:35:41.166Z,99889.06
2023-05-19T14:38:07.792Z,99884.31
2023-05-19T14:40:36.962Z,99887.50
2023-05-19T14:43:03.513Z,99903.09
2023-05-19T14:45:29.879Z,99888.91
2023-05-19T14:47:56.374Z,99900.84
2023-05-19T14:50:22.778Z,99883.72
2023-05-19T14:52:49.286Z,99880.63
2023-05-19T14:55:15.909Z,99894.81
2023-05-19T14:57:42.319Z,99901.44
2023-05-19T15:00:09.358Z,99891.88
2023-05-19T15:02:36.476Z,99884.56
2023-05-19T15:05:03.030Z,99882.88
2023-05-19T15:07:29.390Z,99880.72
2023-05-19T15:09:55.817Z,99883.44
2023-05-19T15:12:22.275Z,99875.84
2023-05-19T15:14:48.956Z,99864.31
2023-05-19T15:17:15.430Z,99854.78
2023-05-19T15:19:41.925Z,99858.59
2023-05-19T15:22:08.776Z,99867.38
2023-05-19T15:24:35.260Z,99853.59
2023-05-19T15:27:02.268Z,99856.31
2023-05-19T15:29:28.717Z,99851.78
2023-05-19T15:31:55.146Z,99860.34
2023-05-19T15:34:21.750Z,99851.84
2023-05-19T15:36:48.233Z,99857.78
2023-05-19T15:39:14.677Z,99838.34
2023-05-19T15:41:41.042Z,99852.31
2023-05-19T15:44:07.477Z,99848.69
2023-05-19T15:46:34.271Z,99855.41
2023-05-19T15:49:00.967Z,99852.28
2023-05-19T15:51:27.917Z,99843.69
2023-05-19T15:53:54.322Z,99839.94
2023-05-19T15:56:21.024Z,99853.81
2023-05-19T15:58:47.553Z,99845.09
2023-05-19T16:01:16.043Z,99840.06
2023-05-19T16:03:42.786Z,99845.25
2023-05-19T16:06:09.601Z,99842.44
2023-05-19T16:08:35.962Z,99852.69
2023-05-19T16:11:02.326Z,99837.78
2023-05-19T16:13:28.744Z,99840.31
2023-05-19T16:15:55.335Z,99837.38
2023-05-19T16:18:21.703Z,99820.81
2023-05-19T16:20:48.304Z,99839.50
2023-05-19T16:23:14.639Z,99824.75
2023-05-19T16:25:41.413Z,99832.22
2023-05-19T16:28:08.117Z,99825.59
2023-05-19T16:30:34.694Z,99829.13
2023-05-19T16:33:01.203Z,99825.16
2023-05-19T16:35:27.699Z,99830.34
2023-05-19T16:37:54.204Z,99822.91
2023-05-19T16:40:20.585Z,99820.66
2023-05-19T16:42:47.216Z,99825.59
2023-05-19T16:45:13.645Z,99818.00
2023-05-19T16:47:40.105Z,99819.16
2023-05-19T16:50:07.322Z,99821.94
2023-05-19T16:52:34.014Z,99814.66
2023-05-19T16:55:00.376Z,99818.16
2023-05-19T16:57:26.760Z,99822.38
2023-05-19T16:59:53.506Z,99820.13
2023-05-19T17:02:19.863Z,99811.84
2023-05-19T17:04:46.225Z,99820.38
2023-05-19T17:07:13.531Z,99826.25
2023-05-19T17:09:39.882Z,99825.66
2023-05-19T17:12:06.655Z,99815.66
2023-05-19T17:14:33.005Z,99814.25
2023-05-19T17:16:59.745Z,99805.41
2023-05-19T17:19:26.374Z,99810.16
2023-05-19T17:21:53.057Z,99811.16
2023-05-19T17:24:19.464Z,99815.34
2023-05-19T17:26:46.046Z,99814.09
2023-05-19T17:29:12.401Z,99808.34
2023-05-19T17:31:38.901Z,99810.19
2023-05-19T17:34:05.382Z,99811.34
2023-05-19T17:36:31.729Z,99807.75
2023-05-19T17:38:58.149Z,99809.72
2023-05-19T17:41:25.089Z,99812.13
2023-05-19T17:43:51.810Z,99816.53
2023-05-19T17:46:18.577Z,99815.69
2023-05-19T17:48:45.011Z,99813.28
2023-05-19T17:51:11.856Z,99815.06
2023-05-19T17:53:38.476Z,99801.66
2023-05-19T17:56:06.224Z,99804.44
2023-05-19T17:58:33.009Z,99808.31
2023-05-19T18:00:59.776Z,99803.38
2023-05-19T18:03:26.506Z,99805.50
2023-05-19T18:05:53.318Z,99805.63
2023-05-19T18:08:21.176Z,99808.59
2023-05-19T18:10:47.840Z,99806.81
2023-05-19T18:13:14.256Z,99803.09
2023-05-19T18:15:40.637Z,99809.13
2023-05-19T18:18:07.138Z,99806.72
2023-05-19T18:20:37.189Z,99803.75
2023-05-19T18:23:03.999Z,99806.09
2023-05-19T18:25:30.467Z,99802.50
2023-05-19T18:27:56.836Z,99797.25
2023-05-19T18:30:23.374Z,99805.47
2023-05-19T18:32:49.821Z,99813.94
2023-05-19T18:35:16.413Z,99821.09
2023-05-19T18:37:42.831Z,99817.75
2023-05-19T18:40:09.991Z,99826.78
2023-05-19T18:42:36.411Z,99814.38
2023-05-19T18:45:03.228Z,99825.25
2023-05-19T18:47:29.675Z,99824.41
2023-05-19T18:49:56.079Z,99832.28
2023-05-19T18:52:22.513Z,99822.59
2023-05-19T18:54:48.879Z,99828.75
2023-05-19T18:57:15.294Z,99831.53
2023-05-19T18:59:41.627Z,99835.31
2023-05-19T19:02:07.985Z,99840.50
2023-05-19T19:04:34.461Z,99832.91
2023-05-19T19:07:01.152Z,99835.56
2023-05-19T19:09:27.716Z,99846.44
2023-05-19T19:11:54.074Z,99852.34
2023-05-19T19:14:20.668Z,99856.31
2023-05-19T19:16:47.110Z,99852.81
2023-05-19T19:19:13.821Z,99853.19
2023-05-19T19:21:41.342Z,99858.88
2023-05-19T19:24:07.702Z,99858.38
2023-05-19T19:26:34.132Z,99856.81
2023-05-19T19:29:00.486Z,99858.84
2023-05-19T19:31:27.355Z,99860.41
2023-05-19T19:33:53.823Z,99866.91
2023-05-19T19:36:20.434Z,99877.75
2023-05-19T19:38:46.887Z,99878.69
2023-05-19T19:41:13.288Z,99881.47
2023-05-19T19:43:39.813Z,99881.09
2023-05-19T19:46:06.179Z,99878.22
2023-05-19T19:48:32.869Z,99880.59
2023-05-19T19:50:59.356Z,99885.50
2023-05-19T19:53:25.722Z,99885.13
2023-05-19T19:56:02.229Z,99887.47
2023-05-19T19:58:29.131Z,99894.31
2023-05-19T20:00:59.971Z,99896.19
2023-05-19T20:03:26.669Z,99899.75
2023-05-19T20:05:54.956Z,99903.34
2023-05-19T20:08:21.997Z,99902.31
2023-05-19T20:10:48.515Z,99898.09
2023-05-19T20:13:15.920Z,99897.44
2023-05-19T20:15:43.391Z,99900.53
2023-05-19T20:18:10.434Z,99908.38
2023-05-19T20:20:37.716Z,99905.72
2023-05-19T20:23:04.089Z,99902.69
2023-05-19T20:25:30.781Z,99897.38
2023-05-19T20:27:57.155Z,99898.56
2023-05-19T20:30:23.879Z,99904.16
2023-05-19T20:32:50.328Z,99903.25
2023-05-19T20:35:16.768Z,99904.94
2023-05-19T20:37:43.189Z,99903.34
2023-05-19T20:40:09.770Z,99909.38
2023-05-19T20:42:38.842Z,99906.50
2023-05-19T20:45:05.732Z,99908.22
2023-05-19T20:47:32.292Z,99903.75
2023-05-19T20:49:58.693Z,99892.88
2023-05-19T20:52:25.418Z,99902.38
2023-05-19T20:54:51.766Z,99903.75
2023-05-19T20:57:18.208Z,99911.56
2023-05-19T20:59:44.630Z,99904.16
2023-05-19T21:02:11.041Z,99902.25
2023-05-19T21:04:38.661Z,99901.22
2023-05-19T21:07:05.293Z,99898.78
2023-05-19T21:09:31.675Z,99902.81
2023-05-19T21:11:58.371Z,99900.16
2023-05-19T21:14:24.789Z,99897.84
2023-05-19T21:16:52.662Z,99893.38
2023-05-19T21:19:19.579Z,99901.19
2023-05-19T21:21:46.534Z,99885.63
2023-05-19T21:24:14.118Z,99898.09
2023-05-19T21:26:41.319Z,99897.75
2023-05-19T21:29:08.656Z,99897.22
2023-05-19T21:31:35.732Z,99896.41
2023-05-19T21:34:03.012Z,99900.09
2023-05-19T21:36:29.448Z,99899.66
2023-05-19T21:38:56.299Z,99904.34
2023-05-19T21:41:22.661Z,99902.63
2023-05-19T21:43:49.078Z,99910.44
2023-05-19T21:46:15.621Z,99906.22
2023-05-19T21:48:42.067Z,99915.97
2023-05-19T21:51:08.404Z,99899.59
2023-05-19T21:53:34.755Z,99915.38
2023-05-19T21:56:01.289Z,99918.41
2023-05-19T21:58:27.649Z,99909.47
2023-05-19T22:00:54.377Z,99910.56
2023-05-19T22:03:21.209Z,99904.06
2023-05-19T22:05:51.839Z,99905.97
2023-05-19T22:08:19.513Z,99911.41
2023-05-19T22:10:49.144Z,99914.38
2023-05-19T22:13:15.894Z,99905.72
2023-05-19T22:15:42.377Z,99903.19
2023-05-19T22:18:08.797Z,99900.53
2023-05-19T22:20:35.356Z,99894.69
2023-05-19T22:23:01.817Z,99883.38
2023-05-19T22:25:28.172Z,99890.28
2023-05-19T22:27:54.862Z,99885.19
2023-05-19T22:30:21.591Z,99899.94
2023-05-19T22:32:48.078Z,99901.22
2023-05-19T22:35:14.767Z,99892.75
2023-05-19T22:37:41.476Z,99893.91
2023-05-19T22:40:08.204Z,99885.41
2023-05-19T22:42:34.559Z,99897.50
2023-05-19T22:45:00.978Z,99897.72
2023-05-19T22:47:27.353Z,99905.66
2023-05-19T22:49:54.959Z,99892.97
2023-05-19T22:52:23.636Z,99892.88
2023-05-19T22:54:50.253Z,99901.88
2023-05-19T22:57:17.189Z,99905.78
2023-05-19T22:59:43.592Z,99899.16
2023-05-19T23:02:10.410Z,99901.66
2023-05-19T23:04:36.790Z,99896.25
2023-05-19T23:07:03.347Z,99892.75
2023-05-19T23:09:29.715Z,99893.81
2023-05-19T23:11:56.356Z,99899.53
2023-05-19T23:14:22.789Z,99892.31
2023-05-19T23:16:49.237Z,99900.81
2023-05-19T23:19:15.746Z,99896.06
2023-05-19T23:21:42.155Z,99894.13
2023-05-19T23:24:08.559Z,99893.63
2023-05-19T23:26:34.964Z,99896.34
2023-05-19T23:29:01.316Z,99890.44
2023-05-19T23:31:27.789Z,99890.44
2023-05-19T23:33:54.222Z,99883.09
2023-05-19T23:36:20.790Z,99877.81
2023-05-19T23:38:47.140Z,99885.97
2023-05-19T23:41:13.588Z,99885.78
2023-05-19T23:43:39.928Z,99889.34
2023-05-19T23:46:06.477Z,99889.50
2023-05-19T23:48:32.904Z,99881.34
2023-05-19T23:50:59.587Z,99885.66
2023-05-19T23:53:26.025Z,99884.50
2023-05-19T23:55:52.520Z,99880.47
2023-05-19T23:58:18.937Z,99893.09
